This is the latest recevied weather packets stored in our database for station/object F4WDE-10. If no packets are shown the sender has not sent any weather packets the latest 1 day(s).
| Time | Temp. | Humidity | Pressure | Rain* | Wind** | Luminosity | Snow |
|---|---|---|---|---|---|---|---|
| 1788608360 | 28.89° C | 79% | 965 hPa | - | - | - | - |
| 1788607459 | 29.44° C | 75% | 965 hPa | - | - | - | - |
| 1788606558 | 29.44° C | 74% | 965 hPa | - | - | - | - |
| 1788605657 | 30° C | 73% | 965 hPa | - | - | - | - |
| 1788604756 | 30.56° C | 69% | 965 hPa | - | - | - | - |
| 1788603855 | 30° C | 70% | 965 hPa | - | - | - | - |
| 1788602954 | 31.11° C | 64% | 965 hPa | - | - | - | - |
| 1788602053 | 30.56° C | 63% | 965 hPa | - | - | - | - |
| 1788601151 | 30° C | 69% | 965 hPa | - | - | - | - |
| 1788600250 | 30° C | 71% | 965 hPa | - | - | - | - |
| 1788599349 | 30° C | 68% | 965 hPa | - | - | - | - |
| 1788598448 | 30.56° C | 68% | 965 hPa | - | - | - | - |
| 1788597546 | 29.44° C | 71% | 965 hPa | - | - | - | - |
| 1788596645 | 29.44° C | 72% | 964 hPa | - | - | - | - |
| 1788595744 | 29.44° C | 72% | 964 hPa | - | - | - | - |
| 1788594843 | 29.44° C | 71% | 964 hPa | - | - | - | - |
| 1788593942 | 29.44° C | 72% | 964 hPa | - | - | - | - |
| 1788593041 | 28.89° C | 77% | 964 hPa | - | - | - | - |
| 1788592140 | 27.78° C | 85% | 964 hPa | - | - | - | - |
| 1788591239 | 27.78° C | 85% | 964 hPa | - | - | - | - |
| 1788590338 | 27.22° C | 87% | 964 hPa | - | - | - | - |
| 1788589437 | 26.67° C | 89% | 964 hPa | - | - | - | - |
| 1788588536 | 26.67° C | 88% | 964 hPa | - | - | - | - |
| 1788587635 | 26.67° C | 88% | 964 hPa | - | - | - | - |
| 1788586734 | 26.11° C | 91% | 964 hPa | - | - | - | - |
* Rain since midnight (hover to see other rain measurements)
** Current wind speed in m/s (hover to see current wind gust speed)